Time;durP1;ratioP1;P1;durP2;ratioP2;P2;SDS_P1;SDS_P2;PMS_P1;PMS_P2;Temp;Humidity;BMP_temperature;BMP_pressure;BME280_temperature;BME280_humidity;BME280_pressure;Samples;Min_cycle;Max_cycle;Signal;HPM_P1;HPM_P2
2022/12/21 00:01:47;;;;;;;80.43;18.90;;;6.00;99.90;;;;;;6172375;23;20024;-71
2022/12/21 00:04:13;;;;;;;66.70;16.55;;;5.90;99.90;;;;;;6175782;23;20055;-72
2022/12/21 00:06:38;;;;;;;86.15;18.27;;;5.90;99.90;;;;;;6174961;23;20068;-72
2022/12/21 00:09:06;;;;;;;82.30;18.08;;;5.80;99.90;;;;;;6174108;23;20088;-71
2022/12/21 00:11:35;;;;;;;102.72;16.58;;;5.70;99.90;;;;;;6174425;23;20021;-71
2022/12/21 00:14:02;;;;;;;150.07;19.75;;;5.70;99.90;;;;;;6176214;23;20397;-71
2022/12/21 00:16:30;;;;;;;116.60;19.13;;;5.70;99.90;;;;;;6171457;23;20029;-71
2022/12/21 00:18:57;;;;;;;57.45;15.63;;;5.60;99.90;;;;;;6177451;23;20013;-71
2022/12/21 00:21:25;;;;;;;71.32;16.67;;;5.50;99.90;;;;;;6177237;23;20019;-71
2022/12/21 00:23:53;;;;;;;55.88;15.93;;;5.50;99.90;;;;;;6174838;23;20437;-72
2022/12/21 00:26:22;;;;;;;42.63;15.23;;;5.40;99.90;;;;;;6174812;23;20033;-72
2022/12/21 00:28:50;;;;;;;52.22;15.23;;;5.40;99.90;;;;;;6176213;23;20370;-71
2022/12/21 00:31:18;;;;;;;39.03;13.65;;;5.40;99.90;;;;;;6174121;23;20021;-71
2022/12/21 00:33:45;;;;;;;43.45;13.40;;;5.30;99.90;;;;;;6174297;23;20330;-73
2022/12/21 00:36:14;;;;;;;44.35;13.32;;;5.20;99.90;;;;;;6170525;23;20021;-71
2022/12/21 00:38:40;;;;;;;34.63;13.40;;;5.20;99.90;;;;;;6174429;23;20488;-71
2022/12/21 00:41:08;;;;;;;36.17;13.27;;;5.10;99.90;;;;;;6173090;23;20469;-72
2022/12/21 00:43:37;;;;;;;28.98;12.85;;;5.10;99.90;;;;;;6173403;23;20032;-72
2022/12/21 00:46:03;;;;;;;36.13;13.05;;;5.10;99.90;;;;;;6170909;23;20071;-72
2022/12/21 00:48:30;;;;;;;36.72;13.13;;;5.00;99.90;;;;;;6173289;23;20465;-71
2022/12/21 00:51:04;;;;;;;36.17;13.68;;;5.00;99.90;;;;;;6171582;23;20354;-71
2022/12/21 00:53:30;;;;;;;86.10;15.50;;;4.90;99.90;;;;;;6173544;23;20020;-72
2022/12/21 00:55:57;;;;;;;94.57;15.93;;;4.90;99.90;;;;;;6176791;23;20481;-72
2022/12/21 00:58:24;;;;;;;88.82;15.15;;;4.80;99.90;;;;;;6176713;23;20032;-72
2022/12/21 01:00:59;;;;;;;224.73;18.77;;;4.80;99.90;;;;;;6174285;23;20169;-72
2022/12/21 01:03:24;;;;;;;224.27;18.23;;;4.70;99.90;;;;;;6172760;23;20458;-72
2022/12/21 01:05:52;;;;;;;163.38;16.08;;;4.60;99.90;;;;;;6175543;23;20029;-72
2022/12/21 01:08:19;;;;;;;184.88;15.75;;;4.60;99.90;;;;;;6172770;23;20457;-72
2022/12/21 01:10:46;;;;;;;149.93;14.50;;;4.50;99.90;;;;;;6173909;23;20339;-72
2022/12/21 01:13:14;;;;;;;109.68;12.60;;;4.50;99.90;;;;;;6173497;23;20521;-71
2022/12/21 01:15:45;;;;;;;130.50;13.13;;;4.40;99.90;;;;;;6173471;23;20044;-72
2022/12/21 01:18:13;;;;;;;132.40;15.68;;;4.30;99.90;;;;;;6172331;23;20360;-72
2022/12/21 01:20:45;;;;;;;110.32;12.80;;;4.30;99.90;;;;;;6176455;23;20020;-72
2022/12/21 01:23:10;;;;;;;43.58;11.40;;;4.30;99.90;;;;;;6174168;23;20055;-72
2022/12/21 01:25:36;;;;;;;56.38;11.48;;;4.20;99.90;;;;;;6176843;23;20025;-72
2022/12/21 01:28:02;;;;;;;47.40;11.70;;;4.10;99.90;;;;;;6177326;23;20032;-71
2022/12/21 01:30:28;;;;;;;25.77;9.95;;;4.00;99.90;;;;;;6176295;23;20040;-71
2022/12/21 01:32:54;;;;;;;49.00;12.18;;;4.00;99.90;;;;;;6172466;23;20021;-71
2022/12/21 01:35:20;;;;;;;50.30;12.02;;;4.10;99.90;;;;;;6175736;23;20392;-71
2022/12/21 01:37:46;;;;;;;65.50;12.88;;;3.90;99.90;;;;;;6177399;23;20023;-72
2022/12/21 01:40:12;;;;;;;55.28;11.68;;;3.90;99.90;;;;;;6175631;23;20024;-72
2022/12/21 01:42:38;;;;;;;54.03;11.90;;;3.90;99.90;;;;;;6175107;23;20021;-71
2022/12/21 01:45:18;;;;;;;55.47;10.57;;;3.90;99.90;;;;;;6176008;23;20100;-72
2022/12/21 01:47:48;;;;;;;86.15;12.48;;;3.90;99.90;;;;;;6176753;23;20067;-72
2022/12/21 01:50:34;;;;;;;126.45;14.23;;;3.90;99.90;;;;;;6173738;23;20028;-71
2022/12/21 01:53:05;;;;;;;143.68;14.43;;;3.80;99.90;;;;;;6173429;23;20021;-71
2022/12/21 01:55:33;;;;;;;105.45;13.68;;;3.80;99.90;;;;;;6172886;23;20096;-72
2022/12/21 01:58:01;;;;;;;65.07;11.60;;;3.70;99.90;;;;;;6174227;23;20024;-71
2022/12/21 02:00:27;;;;;;;91.30;12.73;;;3.70;99.90;;;;;;6174858;23;20022;-71
2022/12/21 02:02:56;;;;;;;50.70;12.77;;;3.60;99.90;;;;;;6175487;23;20033;-71
2022/12/21 02:05:33;;;;;;;62.55;11.60;;;3.70;99.90;;;;;;6175498;23;20028;-71
2022/12/21 02:08:03;;;;;;;48.35;12.88;;;3.60;99.90;;;;;;6174601;23;20060;-71
2022/12/21 02:10:29;;;;;;;43.40;12.60;;;3.70;99.90;;;;;;6174825;23;20027;-71
2022/12/21 02:13:06;;;;;;;40.58;11.70;;;3.60;99.90;;;;;;6178230;23;20017;-71
2022/12/21 02:15:59;;;;;;;52.30;13.90;;;3.60;99.90;;;;;;6174870;23;20385;-71
2022/12/21 02:18:40;;;;;;;78.22;12.65;;;3.60;99.90;;;;;;6149541;23;20021;-71
2022/12/21 02:21:38;;;;;;;49.20;12.95;;;3.50;99.90;;;;;;6176705;23;20073;-71
2022/12/21 02:24:22;;;;;;;39.65;12.15;;;3.60;99.90;;;;;;6176236;23;20029;-71
2022/12/21 02:27:09;;;;;;;46.60;13.10;;;3.50;99.90;;;;;;6177321;23;20581;-71
2022/12/21 02:30:05;;;;;;;33.90;11.48;;;3.50;99.90;;;;;;6174738;23;20350;-71
2022/12/21 02:32:54;;;;;;;47.10;13.20;;;3.50;99.90;;;;;;6175060;23;20029;-71
2022/12/21 02:35:48;;;;;;;61.10;12.20;;;3.50;99.90;;;;;;6156559;23;20040;-71
2022/12/21 02:38:29;;;;;;;43.20;11.93;;;3.50;99.90;;;;;;6151694;23;20350;-71
2022/12/21 02:41:05;;;;;;;27.63;12.15;;;3.40;99.90;;;;;;6152008;23;20477;-72
2022/12/21 02:44:24;;;;;;;53.15;13.43;;;3.40;99.90;;;;;;6175549;23;20080;-72
2022/12/21 02:47:11;;;;;;;60.42;13.88;;;3.40;99.90;;;;;;6112858;23;20036;-72
2022/12/21 02:49:52;;;;;;;68.40;14.18;;;3.40;99.90;;;;;;6148036;23;20025;-72
2022/12/21 02:52:39;;;;;;;68.82;15.15;;;3.40;99.90;;;;;;6174551;23;20103;-72
2022/12/21 02:55:08;;;;;;;72.97;15.63;;;3.40;99.90;;;;;;6151219;23;20112;-72
2022/12/21 02:57:38;;;;;;;38.58;12.95;;;3.30;99.90;;;;;;6149680;23;20052;-72
2022/12/21 03:00:08;;;;;;;61.17;15.02;;;3.40;99.90;;;;;;6151070;23;20461;-72
2022/12/21 03:06:05;;;;;;;65.78;15.05;;;3.30;99.90;;;;;;6147007;23;20397;-72
2022/12/21 03:08:42;;;;;;;71.75;15.85;;;3.30;99.90;;;;;;6150756;23;20067;-72
2022/12/21 03:11:08;;;;;;;52.45;13.73;;;3.30;99.90;;;;;;6176568;23;20032;-71
2022/12/21 03:13:48;;;;;;;51.75;13.05;;;3.20;99.90;;;;;;6148332;23;20662;-71
2022/12/21 03:17:01;;;;;;;67.00;14.23;;;3.20;99.90;;;;;;6174684;23;20559;-71
2022/12/21 03:19:31;;;;;;;62.30;13.55;;;3.20;99.90;;;;;;6002933;23;20035;-71
2022/12/21 03:22:03;;;;;;;71.93;13.30;;;3.20;99.90;;;;;;6151432;23;20119;-71
2022/12/21 03:24:36;;;;;;;44.22;12.38;;;3.20;99.90;;;;;;6149923;23;20025;-71
2022/12/21 03:27:10;;;;;;;85.72;14.70;;;3.20;99.90;;;;;;6175785;23;20029;-71
2022/12/21 03:29:44;;;;;;;48.92;11.85;;;3.20;99.90;;;;;;6150106;23;20365;-71
2022/12/21 03:32:16;;;;;;;90.30;14.65;;;3.20;99.90;;;;;;6146762;23;20029;-71
2022/12/21 03:34:51;;;;;;;78.40;12.57;;;3.20;99.90;;;;;;6149621;23;20381;-71
2022/12/21 03:37:34;;;;;;;69.88;11.90;;;3.20;99.90;;;;;;6176421;23;20029;-72
2022/12/21 03:40:14;;;;;;;57.33;12.60;;;3.20;99.90;;;;;;6149668;23;20029;-71
2022/12/21 03:42:46;;;;;;;57.72;11.15;;;3.10;99.90;;;;;;6150528;23;20013;-71
2022/12/21 03:45:17;;;;;;;57.33;11.48;;;3.20;99.90;;;;;;6146873;23;20028;-71
2022/12/21 03:47:58;;;;;;;64.28;11.80;;;3.20;99.90;;;;;;6148170;23;20017;-71
2022/12/21 03:50:28;;;;;;;113.50;13.35;;;3.10;99.90;;;;;;6147432;23;20777;-71
2022/12/21 03:53:13;;;;;;;77.95;11.30;;;3.20;99.90;;;;;;6150051;23;20100;-71
2022/12/21 03:55:43;;;;;;;66.13;10.93;;;3.10;99.90;;;;;;6151199;23;20020;-71
2022/12/21 03:58:09;;;;;;;75.45;11.48;;;3.30;99.90;;;;;;6149900;23;20402;-71
2022/12/21 04:01:13;;;;;;;100.47;11.07;;;3.20;99.90;;;;;;6148175;23;20055;-71
2022/12/21 04:03:42;;;;;;;114.70;13.88;;;3.20;99.90;;;;;;6121490;23;20049;-71
2022/12/21 04:06:13;;;;;;;107.38;12.10;;;3.30;99.90;;;;;;6175767;23;20096;-71
2022/12/21 04:08:39;;;;;;;120.35;14.10;;;3.30;99.90;;;;;;6150139;23;20454;-71
2022/12/21 04:11:05;;;;;;;104.30;13.68;;;3.40;99.90;;;;;;6175087;23;20477;-71
2022/12/21 04:13:30;;;;;;;125.55;14.52;;;3.30;99.90;;;;;;6148426;23;20028;-71
2022/12/21 04:16:05;;;;;;;100.03;11.77;;;3.40;99.90;;;;;;6147520;23;20040;-72
2022/12/21 04:21:17;;;;;;;71.85;11.75;;;3.40;99.90;;;;;;6175788;23;20037;-71
2022/12/21 04:29:12;;;;;;;103.32;13.25;;;3.30;99.90;;;;;;6148032;23;20181;-72
2022/12/21 04:31:38;;;;;;;78.13;12.38;;;3.40;99.90;;;;;;6148137;23;20252;-71
2022/12/21 04:34:04;;;;;;;105.40;13.68;;;3.40;99.90;;;;;;6166857;23;20021;-72
2022/12/21 04:39:14;;;;;;;127.38;14.57;;;3.30;99.90;;;;;;6174221;23;20020;-71
2022/12/21 04:41:39;;;;;;;97.13;14.05;;;3.30;99.90;;;;;;6174905;23;20031;-71
2022/12/21 04:44:05;;;;;;;97.70;13.27;;;3.30;99.90;;;;;;6173209;23;20056;-71
2022/12/21 04:46:31;;;;;;;76.43;12.20;;;3.30;99.90;;;;;;6173617;23;20029;-71
2022/12/21 04:48:56;;;;;;;65.70;12.68;;;3.40;99.90;;;;;;6175200;23;20028;-71
2022/12/21 04:51:23;;;;;;;70.00;13.93;;;3.40;99.90;;;;;;6170536;23;20536;-71
2022/12/21 04:53:50;;;;;;;75.53;13.27;;;3.40;99.90;;;;;;6177428;23;20036;-71
2022/12/21 04:56:17;;;;;;;70.53;13.70;;;3.40;99.90;;;;;;6174882;23;20025;-72
2022/12/21 04:58:44;;;;;;;73.10;13.23;;;3.40;99.90;;;;;;6174995;23;20021;-72
2022/12/21 05:01:15;;;;;;;61.10;12.98;;;3.40;99.90;;;;;;6174162;23;20044;-72
2022/12/21 05:03:41;;;;;;;41.30;12.32;;;3.40;99.90;;;;;;6175418;23;20392;-71
2022/12/21 05:06:08;;;;;;;78.70;14.30;;;3.40;99.90;;;;;;6175606;23;20035;-72
2022/12/21 05:08:34;;;;;;;71.68;13.52;;;3.40;99.90;;;;;;6175429;23;20027;-71
2022/12/21 05:11:12;;;;;;;95.03;14.63;;;3.50;99.90;;;;;;6178982;23;20453;-72
2022/12/21 05:13:38;;;;;;;75.32;13.05;;;3.50;99.90;;;;;;6178346;23;20021;-71
2022/12/21 05:16:06;;;;;;;68.53;12.93;;;3.60;99.90;;;;;;6175748;23;20451;-71
2022/12/21 05:18:32;;;;;;;52.05;12.98;;;3.50;99.90;;;;;;6174788;23;20076;-71
2022/12/21 05:20:57;;;;;;;27.05;10.93;;;3.60;99.90;;;;;;6175138;23;20488;-71
2022/12/21 05:23:23;;;;;;;63.30;13.32;;;3.50;99.90;;;;;;6178247;23;20488;-71
2022/12/21 05:25:49;;;;;;;56.42;12.88;;;3.50;99.90;;;;;;6175117;23;20036;-71
2022/12/21 05:28:14;;;;;;;53.83;13.00;;;3.50;99.90;;;;;;6177907;23;20021;-72
2022/12/21 05:30:40;;;;;;;79.90;12.98;;;3.50;99.90;;;;;;6174265;23;20516;-71
2022/12/21 05:33:06;;;;;;;79.95;14.07;;;3.50;99.90;;;;;;6174553;23;20025;-72
2022/12/21 05:35:31;;;;;;;119.20;16.02;;;3.50;99.90;;;;;;6177026;23;20385;-71
2022/12/21 05:37:57;;;;;;;111.72;14.15;;;3.60;99.90;;;;;;6177979;23;20548;-71
2022/12/21 05:40:23;;;;;;;95.75;14.52;;;3.60;99.90;;;;;;6175548;23;20025;-71
2022/12/21 05:42:48;;;;;;;89.65;13.23;;;3.50;99.90;;;;;;6176117;23;20442;-71
2022/12/21 05:45:14;;;;;;;148.60;14.93;;;3.60;99.90;;;;;;6175517;23;20020;-71
2022/12/21 05:47:40;;;;;;;126.60;15.65;;;3.50;99.90;;;;;;6176061;23;20327;-75
2022/12/21 05:50:06;;;;;;;94.45;13.50;;;3.50;99.90;;;;;;6176525;23;20025;-75
2022/12/21 05:52:32;;;;;;;99.57;16.10;;;3.40;99.90;;;;;;6173719;23;20032;-74
2022/12/21 05:54:58;;;;;;;66.30;14.68;;;3.50;99.90;;;;;;6176887;23;20079;-74
2022/12/21 05:57:23;;;;;;;82.70;15.05;;;3.50;99.90;;;;;;6176992;23;20032;-74
2022/12/21 05:59:49;;;;;;;68.05;15.10;;;3.40;99.90;;;;;;6172044;23;20017;-75
2022/12/21 06:02:14;;;;;;;55.72;13.48;;;3.40;99.90;;;;;;6174776;23;20087;-74
2022/12/21 06:04:40;;;;;;;67.80;13.05;;;3.40;99.90;;;;;;6175243;23;20026;-75
2022/12/21 06:07:06;;;;;;;71.05;12.68;;;3.40;99.90;;;;;;6171386;23;20275;-74
2022/12/21 06:09:31;;;;;;;77.35;16.92;;;3.40;99.90;;;;;;6176365;23;20167;-75
2022/12/21 06:11:57;;;;;;;64.75;12.18;;;3.40;99.90;;;;;;6173695;23;20097;-75
2022/12/21 06:14:23;;;;;;;118.72;31.15;;;3.40;99.90;;;;;;6172424;23;20151;-75
2022/12/21 06:16:48;;;;;;;80.75;17.55;;;3.50;99.90;;;;;;6173142;23;20075;-75
2022/12/21 06:19:14;;;;;;;67.38;16.63;;;3.40;99.90;;;;;;6176492;23;20033;-75
2022/12/21 06:21:39;;;;;;;49.72;13.88;;;3.50;99.90;;;;;;6175428;23;20021;-75
2022/12/21 06:24:05;;;;;;;64.65;16.77;;;3.50;99.90;;;;;;6174855;23;20029;-75
2022/12/21 06:26:31;;;;;;;63.28;15.43;;;3.50;99.90;;;;;;6175740;23;20099;-71
2022/12/21 06:28:57;;;;;;;48.67;13.43;;;3.50;99.90;;;;;;6172866;23;20021;-77
2022/12/21 06:31:23;;;;;;;92.25;16.90;;;3.60;99.90;;;;;;6173901;23;20083;-77
2022/12/21 06:33:49;;;;;;;59.30;13.98;;;3.50;99.90;;;;;;6174204;23;20071;-74
2022/12/21 06:36:14;;;;;;;76.72;15.13;;;3.60;99.90;;;;;;6173278;23;20044;-74
2022/12/21 06:38:40;;;;;;;70.82;14.32;;;3.50;99.90;;;;;;6174359;23;20029;-73
2022/12/21 06:41:11;;;;;;;90.45;16.58;;;3.60;99.90;;;;;;6177029;23;20460;-73
2022/12/21 06:43:39;;;;;;;104.88;19.48;;;3.60;99.90;;;;;;6174063;23;20025;-74
2022/12/21 06:46:07;;;;;;;80.93;16.75;;;3.60;99.90;;;;;;6173338;23;20020;-75
2022/12/21 06:48:34;;;;;;;116.90;20.50;;;3.60;99.90;;;;;;6175197;23;20028;-74
2022/12/21 06:51:05;;;;;;;89.22;18.23;;;3.70;99.90;;;;;;6175559;23;20138;-71
2022/12/21 06:53:33;;;;;;;85.72;17.85;;;3.70;99.90;;;;;;6174908;23;20029;-72
2022/12/21 06:56:01;;;;;;;101.30;19.25;;;3.70;99.90;;;;;;6171086;23;20021;-71
2022/12/21 06:58:27;;;;;;;92.65;20.00;;;3.70;99.90;;;;;;6169334;23;20013;-71
2022/12/21 07:00:53;;;;;;;115.57;25.60;;;3.80;99.90;;;;;;6175026;23;20040;-71
2022/12/21 07:03:19;;;;;;;93.22;25.92;;;3.80;99.90;;;;;;6168464;23;20120;-70
2022/12/21 07:05:45;;;;;;;79.28;20.77;;;3.80;99.90;;;;;;6173497;23;20476;-71
2022/12/21 07:08:11;;;;;;;80.43;22.40;;;3.90;99.90;;;;;;6170286;23;20032;-71
2022/12/21 07:10:40;;;;;;;98.35;28.05;;;3.80;99.90;;;;;;6173500;23;20349;-70
2022/12/21 07:13:05;;;;;;;137.60;24.75;;;4.00;99.90;;;;;;6173410;23;20051;-71
2022/12/21 07:15:36;;;;;;;147.45;33.88;;;4.00;99.90;;;;;;6177254;23;20131;-71
2022/12/21 07:18:02;;;;;;;140.93;35.30;;;4.10;99.90;;;;;;6172838;23;20481;-70
2022/12/21 07:20:28;;;;;;;143.45;31.85;;;4.00;99.90;;;;;;6175041;23;20021;-70
2022/12/21 07:22:53;;;;;;;107.70;26.27;;;4.10;99.90;;;;;;6173520;23;20370;-73
2022/12/21 07:25:19;;;;;;;117.15;26.35;;;4.20;99.90;;;;;;6175403;23;20029;-71
2022/12/21 07:27:45;;;;;;;179.75;30.20;;;4.10;99.90;;;;;;6175169;23;20072;-70
2022/12/21 07:30:11;;;;;;;154.23;29.13;;;4.20;99.90;;;;;;6175976;23;20013;-69
2022/12/21 07:32:37;;;;;;;188.95;32.78;;;4.20;99.90;;;;;;6172909;23;20017;-69
2022/12/21 07:35:04;;;;;;;166.18;30.27;;;4.30;99.90;;;;;;6176789;23;20024;-69
2022/12/21 07:37:30;;;;;;;128.52;27.17;;;4.30;99.90;;;;;;6175365;23;20365;-70
2022/12/21 07:39:55;;;;;;;217.40;35.40;;;4.30;99.90;;;;;;6174720;23;20021;-69
2022/12/21 07:42:21;;;;;;;115.68;26.02;;;4.20;99.90;;;;;;6174760;23;20025;-70
2022/12/21 07:44:47;;;;;;;125.32;26.90;;;4.20;99.90;;;;;;6173295;23;20146;-72
2022/12/21 07:47:12;;;;;;;126.20;28.88;;;4.20;99.90;;;;;;6170977;23;20083;-72
2022/12/21 07:49:38;;;;;;;96.22;28.02;;;4.20;99.90;;;;;;6174571;23;20087;-72
2022/12/21 07:52:04;;;;;;;139.77;30.90;;;4.30;99.90;;;;;;6173518;23;20477;-72
2022/12/21 07:54:29;;;;;;;133.98;31.23;;;4.30;99.90;;;;;;6173645;23;20365;-71
2022/12/21 07:56:55;;;;;;;177.55;38.22;;;4.30;99.90;;;;;;6174835;23;20024;-72
2022/12/21 07:59:21;;;;;;;225.70;41.70;;;4.30;99.90;;;;;;6173473;23;20360;-72
2022/12/21 08:01:47;;;;;;;224.55;42.90;;;4.40;99.90;;;;;;6172393;23;20025;-71
2022/12/21 08:04:12;;;;;;;240.98;41.65;;;4.40;99.90;;;;;;6171246;23;20036;-72
2022/12/21 08:06:38;;;;;;;300.90;50.47;;;4.40;99.90;;;;;;6174770;23;20072;-71
2022/12/21 08:09:04;;;;;;;282.00;47.83;;;4.40;99.90;;;;;;6175952;23;20029;-72
2022/12/21 08:11:29;;;;;;;248.82;46.72;;;4.40;99.90;;;;;;6173421;23;20041;-72
2022/12/21 08:13:56;;;;;;;482.13;67.43;;;4.50;99.90;;;;;;6174765;23;20095;-72
2022/12/21 08:16:22;;;;;;;388.73;57.67;;;4.50;99.90;;;;;;6173044;23;20079;-71
2022/12/21 08:18:48;;;;;;;357.52;54.63;;;4.50;99.90;;;;;;6175810;23;20067;-72
2022/12/21 08:21:15;;;;;;;432.25;58.88;;;4.60;99.90;;;;;;6175108;23;20017;-72
2022/12/21 08:23:41;;;;;;;387.33;58.20;;;4.60;99.90;;;;;;6175795;23;20035;-72
2022/12/21 08:26:12;;;;;;;488.30;61.55;;;4.60;99.90;;;;;;6173319;23;20265;-72
2022/12/21 08:28:38;;;;;;;376.88;52.28;;;4.70;99.90;;;;;;6175628;23;20017;-72
2022/12/21 08:31:06;;;;;;;342.80;49.72;;;4.70;99.90;;;;;;6174033;23;20036;-72
2022/12/21 08:33:32;;;;;;;427.98;56.10;;;4.80;99.90;;;;;;6165363;23;20021;-72
2022/12/21 08:35:58;;;;;;;319.77;47.72;;;4.80;99.90;;;;;;6168717;23;20055;-72
2022/12/21 08:38:24;;;;;;;259.75;42.70;;;4.80;99.90;;;;;;6171926;23;20052;-72
2022/12/21 08:40:51;;;;;;;381.30;54.20;;;4.90;99.90;;;;;;6171100;23;20095;-72
2022/12/21 08:43:17;;;;;;;233.63;45.58;;;4.80;99.90;;;;;;6170195;23;20017;-71
2022/12/21 08:45:43;;;;;;;304.38;49.58;;;4.90;99.90;;;;;;6171141;23;20077;-71
2022/12/21 08:48:10;;;;;;;387.98;53.50;;;5.00;99.90;;;;;;6169888;23;20092;-72
2022/12/21 08:50:35;;;;;;;396.45;54.97;;;5.00;99.90;;;;;;6172022;23;20468;-72
2022/12/21 08:53:01;;;;;;;357.83;51.50;;;5.10;99.90;;;;;;6175215;23;20028;-73
2022/12/21 08:55:26;;;;;;;390.88;56.50;;;5.10;99.90;;;;;;6176025;23;20031;-71
2022/12/21 08:57:52;;;;;;;278.95;50.67;;;5.10;99.90;;;;;;6175706;23;20025;-72
2022/12/21 09:00:18;;;;;;;252.13;43.47;;;5.10;99.90;;;;;;6173606;23;20017;-71
2022/12/21 09:02:43;;;;;;;249.43;42.42;;;5.20;99.90;;;;;;6171742;23;20021;-72
2022/12/21 09:05:10;;;;;;;267.88;45.08;;;5.20;99.90;;;;;;6172172;23;20453;-71
2022/12/21 09:07:35;;;;;;;249.30;43.70;;;5.20;99.90;;;;;;6176308;23;20071;-71
2022/12/21 09:10:01;;;;;;;242.55;39.17;;;5.20;99.90;;;;;;6174806;23;20465;-72
2022/12/21 09:12:27;;;;;;;250.88;40.92;;;5.20;99.90;;;;;;6177419;23;20028;-71
2022/12/21 09:14:53;;;;;;;259.70;43.97;;;5.20;99.90;;;;;;6178518;23;20025;-71
2022/12/21 09:17:19;;;;;;;256.00;42.33;;;5.20;99.90;;;;;;6172560;23;20009;-71
2022/12/21 09:19:45;;;;;;;254.73;41.80;;;5.20;99.90;;;;;;6178526;23;20028;-71
2022/12/21 09:22:12;;;;;;;211.75;37.58;;;5.20;99.90;;;;;;6175142;23;20346;-72
2022/12/21 09:24:37;;;;;;;183.02;36.55;;;5.20;99.90;;;;;;6176747;23;20025;-72
2022/12/21 09:27:03;;;;;;;198.35;39.03;;;5.30;99.90;;;;;;6176863;23;20531;-71
2022/12/21 09:29:29;;;;;;;175.35;35.00;;;5.20;99.90;;;;;;6178106;23;20017;-71
2022/12/21 09:31:55;;;;;;;139.02;33.50;;;5.30;99.90;;;;;;6176401;23;20021;-71
2022/12/21 09:34:20;;;;;;;141.30;36.60;;;5.30;99.90;;;;;;6177380;23;21006;-72
2022/12/21 09:36:46;;;;;;;151.43;33.45;;;5.30;99.90;;;;;;6151752;23;20028;-71
2022/12/21 09:39:12;;;;;;;152.43;30.75;;;5.30;99.90;;;;;;6173383;23;20021;-74
2022/12/21 09:41:50;;;;;;;103.75;26.42;;;5.30;99.90;;;;;;6175000;23;20021;-74
2022/12/21 09:44:59;;;;;;;105.38;26.15;;;5.30;99.90;;;;;;6144874;23;20332;-72
2022/12/21 09:47:35;;;;;;;97.03;22.90;;;5.30;99.90;;;;;;6151774;23;20024;-73
2022/12/21 09:50:07;;;;;;;97.78;23.73;;;5.30;99.90;;;;;;6152769;23;20032;-73
2022/12/21 09:52:43;;;;;;;114.45;24.05;;;5.30;99.90;;;;;;6153162;23;20051;-73
2022/12/21 09:55:17;;;;;;;118.93;21.55;;;5.40;99.90;;;;;;6177706;23;20692;-74
2022/12/21 09:57:44;;;;;;;153.13;24.70;;;5.30;99.90;;;;;;6151935;23;20093;-76
2022/12/21 10:00:18;;;;;;;103.35;21.08;;;5.40;99.90;;;;;;6149702;23;20017;-74
2022/12/21 10:03:10;;;;;;;115.07;23.70;;;5.40;99.90;;;;;;6175936;23;20025;-74
2022/12/21 10:05:57;;;;;;;132.63;24.48;;;5.50;99.90;;;;;;6152735;23;20029;-73
2022/12/21 10:08:42;;;;;;;130.93;26.15;;;5.50;99.90;;;;;;6153194;23;20064;-73
2022/12/21 10:11:27;;;;;;;108.50;23.33;;;5.50;99.90;;;;;;6177811;23;20488;-73
2022/12/21 10:14:12;;;;;;;123.55;24.08;;;5.60;99.90;;;;;;6101917;23;20017;-73
2022/12/21 10:17:06;;;;;;;97.32;22.02;;;5.60;99.90;;;;;;6176612;23;20055;-73
2022/12/21 10:20:06;;;;;;;119.78;23.70;;;5.60;99.90;;;;;;6179753;23;20521;-74
2022/12/21 10:22:37;;;;;;;82.18;20.52;;;5.70;99.90;;;;;;6177565;23;20023;-73
2022/12/21 10:25:14;;;;;;;111.82;23.17;;;5.70;99.90;;;;;;6178297;23;20099;-73
2022/12/21 10:27:45;;;;;;;105.15;28.60;;;5.80;99.90;;;;;;6176289;23;20051;-73
2022/12/21 10:30:16;;;;;;;91.10;24.77;;;5.80;99.90;;;;;;6178932;23;20029;-73
2022/12/21 10:32:46;;;;;;;105.80;25.67;;;5.80;99.90;;;;;;6151290;23;20071;-73
2022/12/21 10:35:35;;;;;;;95.05;24.42;;;5.80;99.90;;;;;;6174953;23;20079;-73
2022/12/21 10:38:06;;;;;;;97.38;25.77;;;5.90;99.90;;;;;;6176045;23;20017;-69
2022/12/21 10:40:32;;;;;;;101.88;25.15;;;5.90;99.90;;;;;;6175802;23;20021;-71
2022/12/21 10:42:59;;;;;;;113.13;25.00;;;5.90;99.90;;;;;;6177391;23;20464;-70
2022/12/21 10:45:25;;;;;;;123.15;26.50;;;5.90;99.90;;;;;;6177388;23;20017;-71
2022/12/21 10:47:51;;;;;;;128.32;26.55;;;5.90;99.90;;;;;;6174220;23;20025;-70
2022/12/21 10:50:37;;;;;;;93.00;24.65;;;5.90;99.90;;;;;;6174176;23;20437;-71
2022/12/21 10:53:27;;;;;;;97.53;26.05;;;5.90;99.90;;;;;;6177247;23;20024;-70
2022/12/21 10:55:59;;;;;;;104.15;28.15;;;6.00;99.90;;;;;;6176811;23;20419;-70
2022/12/21 10:58:31;;;;;;;107.78;27.35;;;6.00;99.90;;;;;;6175941;23;20044;-70
2022/12/21 11:00:59;;;;;;;92.05;26.90;;;6.00;99.90;;;;;;6178561;23;20021;-70
2022/12/21 11:03:36;;;;;;;102.60;28.08;;;6.10;99.90;;;;;;6176370;23;20040;-70
2022/12/21 11:06:19;;;;;;;93.78;29.08;;;6.10;99.90;;;;;;6175952;23;20079;-70
2022/12/21 11:08:49;;;;;;;78.70;25.92;;;6.10;99.90;;;;;;6174420;23;20075;-70
2022/12/21 11:11:32;;;;;;;91.53;28.65;;;6.10;99.90;;;;;;6168985;23;20075;-71
2022/12/21 11:14:19;;;;;;;82.45;30.77;;;6.10;99.90;;;;;;6175365;23;20043;-69
2022/12/21 11:16:45;;;;;;;84.47;29.83;;;6.10;99.90;;;;;;6172177;23;20334;-70
2022/12/21 11:19:14;;;;;;;78.75;28.63;;;6.20;99.90;;;;;;6174705;23;20109;-70
2022/12/21 11:22:05;;;;;;;94.90;31.05;;;6.10;99.90;;;;;;6176940;23;20048;-70
2022/12/21 11:24:37;;;;;;;99.07;31.50;;;6.10;99.90;;;;;;6176356;23;20032;-70
2022/12/21 11:27:10;;;;;;;95.32;32.88;;;6.20;99.90;;;;;;6173614;23;20032;-70
2022/12/21 11:29:49;;;;;;;83.65;32.97;;;6.20;99.90;;;;;;6176630;23;20017;-70
2022/12/21 11:32:17;;;;;;;90.18;32.33;;;6.20;99.90;;;;;;6173862;23;20024;-70
2022/12/21 11:34:56;;;;;;;91.05;31.80;;;6.30;99.90;;;;;;6176169;23;20036;-70
2022/12/21 11:37:44;;;;;;;79.95;29.10;;;6.30;99.90;;;;;;6174887;23;20135;-69
2022/12/21 11:40:21;;;;;;;83.95;30.80;;;6.30;99.90;;;;;;6174848;23;20151;-70
2022/12/21 11:42:59;;;;;;;75.30;28.58;;;6.40;99.90;;;;;;6176062;23;20063;-70
2022/12/21 11:45:28;;;;;;;70.45;28.38;;;6.40;99.90;;;;;;6149571;23;20087;-70
2022/12/21 11:48:17;;;;;;;68.30;26.88;;;6.50;99.90;;;;;;6148052;23;20107;-71
2022/12/21 11:51:21;;;;;;;68.90;26.58;;;6.50;99.90;;;;;;6176128;23;20031;-71
2022/12/21 11:54:05;;;;;;;68.53;26.65;;;6.60;99.90;;;;;;6133573;23;20029;-71
2022/12/21 11:56:43;;;;;;;69.50;24.85;;;6.60;99.90;;;;;;6151694;23;20083;-72
2022/12/21 11:59:30;;;;;;;72.53;26.40;;;6.60;99.90;;;;;;6151061;23;20032;-70
2022/12/21 12:01:55;;;;;;;68.35;23.73;;;6.50;99.90;;;;;;6174748;23;20091;-71
2022/12/21 12:05:00;;;;;;;59.17;25.20;;;6.50;99.90;;;;;;6147178;23;20036;-70
2022/12/21 12:07:36;;;;;;;60.28;22.42;;;6.50;99.90;;;;;;6075601;23;20079;-71
2022/12/21 12:10:17;;;;;;;65.50;23.80;;;6.60;99.90;;;;;;6177269;23;20448;-72
2022/12/21 12:12:49;;;;;;;69.15;25.70;;;6.60;99.90;;;;;;6150907;23;20029;-71
2022/12/21 12:15:20;;;;;;;73.63;26.48;;;6.50;99.90;;;;;;6177513;23;20035;-70
2022/12/21 12:18:14;;;;;;;74.13;27.88;;;6.50;99.90;;;;;;6175076;23;20103;-71
2022/12/21 12:21:15;;;;;;;76.78;30.35;;;6.50;99.90;;;;;;6148681;23;20084;-74
2022/12/21 12:24:09;;;;;;;87.53;29.77;;;6.60;99.90;;;;;;6176967;23;20037;-73
2022/12/21 12:26:50;;;;;;;88.85;31.58;;;6.70;99.90;;;;;;6150220;23;20051;-73
2022/12/21 12:29:37;;;;;;;74.55;32.03;;;6.60;99.90;;;;;;6152475;23;20021;-73
2022/12/21 12:32:11;;;;;;;76.05;32.95;;;6.70;99.90;;;;;;6176641;23;20412;-72
2022/12/21 12:35:00;;;;;;;83.53;34.50;;;6.70;99.90;;;;;;6177002;23;20033;-73
2022/12/21 12:37:51;;;;;;;80.15;34.13;;;6.80;99.90;;;;;;6177446;23;20032;-73
2022/12/21 12:40:42;;;;;;;63.95;29.90;;;6.80;99.90;;;;;;6177327;23;20297;-73
2022/12/21 12:43:51;;;;;;;70.80;30.08;;;6.90;99.90;;;;;;6178178;23;20021;-74
2022/12/21 12:46:51;;;;;;;71.63;30.63;;;6.90;99.90;;;;;;6149696;23;20072;-73
2022/12/21 12:49:49;;;;;;;69.18;31.77;;;7.00;99.90;;;;;;6150780;23;20404;-73
2022/12/21 12:52:26;;;;;;;71.50;31.90;;;7.00;99.90;;;;;;6072376;23;20021;-73
2022/12/21 12:54:52;;;;;;;56.67;27.88;;;7.10;99.90;;;;;;6178059;23;20021;-74
2022/12/21 12:57:34;;;;;;;77.10;31.52;;;7.10;99.90;;;;;;6151831;23;20025;-73
2022/12/21 13:00:10;;;;;;;55.75;26.73;;;7.10;99.90;;;;;;6152128;23;20028;-73
2022/12/21 13:02:44;;;;;;;66.85;27.73;;;7.10;99.90;;;;;;6176450;23;20469;-73
2022/12/21 13:05:24;;;;;;;57.90;30.48;;;7.10;99.90;;;;;;6177244;23;20287;-72
2022/12/21 13:08:23;;;;;;;59.22;27.67;;;7.20;99.90;;;;;;6152079;23;20039;-73
2022/12/21 13:11:26;;;;;;;63.03;29.20;;;7.20;99.90;;;;;;6175662;23;20021;-73
2022/12/21 13:14:01;;;;;;;57.30;29.80;;;7.20;99.90;;;;;;6176990;23;20021;-73